Time;durP1;ratioP1;P1;durP2;ratioP2;P2;SDS_P1;SDS_P2;PMS_P1;PMS_P2;Temp;Humidity;BMP_temperature;BMP_pressure;BME280_temperature;BME280_humidity;BME280_pressure;Samples;Min_cycle;Max_cycle;Signal;HPM_P1;HPM_P2
2023/03/31 00:00:10;;;;;;;5.50;1.40;;;;;;;13.53;64.71;98871.69;347398;28;1199;-70
2023/03/31 00:00:22;;;;;;;5.75;1.23;;;;;;;13.50;64.80;98871.88;346015;28;1970;-70
2023/03/31 00:00:35;;;;;;;4.97;1.17;;;;;;;13.50;64.98;98863.16;347616;28;1314;-70
2023/03/31 00:00:51;;;;;;;4.43;1.20;;;;;;;13.52;64.96;98861.31;347375;28;1439;-70
2023/03/31 00:01:05;;;;;;;4.03;1.20;;;;;;;13.56;64.90;98870.66;347642;28;1070;-70
2023/03/31 00:01:18;;;;;;;3.85;1.20;;;;;;;13.37;65.05;98870.88;347544;28;1306;-70
2023/03/31 00:01:35;;;;;;;3.60;1.15;;;;;;;13.36;64.97;98863.97;346130;28;1059;-70
2023/03/31 00:01:47;;;;;;;4.45;1.30;;;;;;;13.36;65.02;98862.22;347563;28;1288;-70
2023/03/31 00:02:01;;;;;;;5.00;1.30;;;;;;;13.37;64.80;98865.66;347404;28;1136;-70
2023/03/31 00:02:13;;;;;;;3.45;1.05;;;;;;;13.37;64.95;98861.25;347577;28;1766;-70
2023/03/31 00:02:28;;;;;;;3.05;1.10;;;;;;;13.40;64.90;98855.06;347374;28;1789;-70
2023/03/31 00:02:41;;;;;;;4.20;1.27;;;;;;;13.44;64.87;98856.56;347282;28;1755;-70
2023/03/31 00:02:54;;;;;;;5.28;1.40;;;;;;;13.48;64.68;98858.06;347410;28;1286;-70
2023/03/31 00:03:08;;;;;;;5.85;1.40;;;;;;;13.52;64.85;98856.09;347711;28;1751;-70
2023/03/31 00:03:21;;;;;;;5.07;1.17;;;;;;;13.54;64.88;98857.72;347647;28;1058;-70
2023/03/31 00:03:37;;;;;;;5.05;1.20;;;;;;;13.57;64.92;98862.75;347801;28;1081;-70
2023/03/31 00:03:50;;;;;;;5.55;1.35;;;;;;;13.60;64.69;98851.28;347655;28;1420;-70
2023/03/31 00:04:03;;;;;;;4.68;1.30;;;;;;;13.58;64.73;98848.78;347550;28;1106;-70
2023/03/31 00:04:16;;;;;;;4.53;1.27;;;;;;;13.62;64.76;98851.19;346237;28;824;-70
2023/03/31 00:04:30;;;;;;;4.38;1.33;;;;;;;13.63;64.41;98847.66;346225;28;1139;-70
2023/03/31 00:04:51;;;;;;;3.33;1.17;;;;;;;13.65;64.13;98843.19;346270;28;1034;-69
2023/03/31 00:05:03;;;;;;;3.80;1.17;;;;;;;13.69;64.04;98842.06;344688;28;1149;-69
2023/03/31 00:05:16;;;;;;;3.97;1.20;;;;;;;13.70;63.88;98847.22;344808;28;1221;-69
2023/03/31 00:05:29;;;;;;;4.55;1.20;;;;;;;13.73;63.55;98851.41;344957;28;1829;-69
2023/03/31 00:05:46;;;;;;;4.47;1.30;;;;;;;13.77;63.35;98847.69;345078;28;1100;-69
2023/03/31 00:05:59;;;;;;;2.45;1.13;;;;;;;13.78;63.25;98849.34;346903;28;1678;-69
2023/03/31 00:06:16;;;;;;;4.00;1.17;;;;;;;13.79;63.09;98846.66;346786;28;2096;-69
2023/03/31 00:06:40;;;;;;;7.05;1.60;;;;;;;13.81;62.76;98854.41;348273;28;1535;-69
2023/03/31 00:06:55;;;;;;;5.85;1.35;;;;;;;13.78;62.93;98849.34;347789;28;1386;-69
2023/03/31 00:07:08;;;;;;;3.05;1.10;;;;;;;13.76;63.04;98846.00;347935;28;1532;-69
2023/03/31 00:07:23;;;;;;;3.13;1.08;;;;;;;13.74;63.06;98850.47;347974;28;1097;-69
2023/03/31 00:07:36;;;;;;;3.03;1.10;;;;;;;13.77;63.16;98850.31;347401;28;1629;-69
2023/03/31 00:07:53;;;;;;;3.03;1.05;;;;;;;13.75;63.26;98854.78;348360;28;1264;-69
2023/03/31 00:08:08;;;;;;;3.80;1.30;;;;;;;13.75;63.29;98842.56;349356;28;1012;-69
2023/03/31 00:08:20;;;;;;;3.55;1.30;;;;;;;13.74;63.40;98834.78;349100;28;967;-69
2023/03/31 00:08:34;;;;;;;3.25;1.17;;;;;;;13.76;63.30;98840.78;349516;28;950;-69
2023/03/31 00:08:50;;;;;;;3.60;1.20;;;;;;;13.78;63.45;98838.91;348615;28;1268;-69
2023/03/31 00:09:05;;;;;;;3.65;1.30;;;;;;;13.73;63.40;98838.34;347826;28;1066;-69
2023/03/31 00:09:20;;;;;;;3.88;1.20;;;;;;;13.72;63.16;98840.13;347285;28;1611;-69
2023/03/31 00:09:34;;;;;;;4.03;1.17;;;;;;;13.73;63.06;98835.75;348142;28;840;-69
2023/03/31 00:09:53;;;;;;;4.00;1.30;;;;;;;13.74;63.27;98842.63;347700;28;1571;-69
2023/03/31 00:10:22;;;;;;;4.90;1.05;;;;;;;13.73;63.20;98836.56;347048;28;1802;-69
2023/03/31 00:10:34;;;;;;;4.70;1.20;;;;;;;13.75;63.00;98839.94;347659;28;1093;-69
2023/03/31 00:10:47;;;;;;;4.43;1.33;;;;;;;13.77;63.03;98837.25;347450;28;1046;-69
2023/03/31 00:10:59;;;;;;;3.92;1.30;;;;;;;13.72;62.89;98834.03;347503;28;1318;-69
2023/03/31 00:11:11;;;;;;;3.60;1.30;;;;;;;13.71;63.01;98838.44;346846;28;1840;-69
2023/03/31 00:11:23;;;;;;;3.42;1.27;;;;;;;13.63;63.28;98835.44;347346;28;1937;-69
2023/03/31 00:11:36;;;;;;;4.03;1.30;;;;;;;13.64;63.43;98841.50;346650;28;2027;-69
2023/03/31 00:11:49;;;;;;;4.53;1.20;;;;;;;13.62;64.00;98841.56;348219;28;1371;-69
2023/03/31 00:12:01;;;;;;;2.50;1.10;;;;;;;13.66;64.15;98847.47;347351;28;1297;-69
2023/03/31 00:12:14;;;;;;;3.30;1.40;;;;;;;13.66;64.10;98839.63;348913;28;1683;-69
2023/03/31 00:12:26;;;;;;;3.97;1.40;;;;;;;13.65;63.95;98837.97;348750;28;1076;-69
2023/03/31 00:12:39;;;;;;;5.35;1.30;;;;;;;13.61;63.53;98837.28;347034;28;1229;-69
2023/03/31 00:12:51;;;;;;;4.78;1.20;;;;;;;13.61;63.62;98836.47;346298;28;1958;-69
2023/03/31 00:13:02;;;;;;;2.88;1.13;;;;;;;13.62;63.42;98838.13;346711;28;1711;-69
2023/03/31 00:13:15;;;;;;;2.97;1.10;;;;;;;13.57;63.35;98830.56;347741;28;1563;-69
2023/03/31 00:13:28;;;;;;;2.92;1.15;;;;;;;13.55;63.62;98833.25;347677;28;1061;-69
2023/03/31 00:13:40;;;;;;;2.75;1.17;;;;;;;13.47;63.89;98837.25;347713;28;1296;-69
2023/03/31 00:13:52;;;;;;;3.28;1.13;;;;;;;13.51;63.90;98833.53;347484;28;1652;-69
2023/03/31 00:14:08;;;;;;;3.85;1.10;;;;;;;13.49;64.01;98841.44;347029;28;1069;-69
2023/03/31 00:14:20;;;;;;;4.25;1.27;;;;;;;13.45;64.05;98839.94;347704;28;1101;-68
2023/03/31 00:14:32;;;;;;;3.63;1.40;;;;;;;13.45;64.06;98839.94;347464;28;1101;-69
2023/03/31 00:14:44;;;;;;;4.55;1.50;;;;;;;13.42;64.20;98837.53;347637;28;1335;-69
2023/03/31 00:14:56;;;;;;;5.20;1.30;;;;;;;13.44;63.98;98840.91;347339;28;4311;-69
2023/03/31 00:15:08;;;;;;;6.40;1.17;;;;;;;13.44;64.20;98834.81;346244;28;1087;-69
2023/03/31 00:15:20;;;;;;;5.25;1.10;;;;;;;13.39;64.46;98837.69;345711;28;1642;-69
2023/03/31 00:15:32;;;;;;;5.07;1.20;;;;;;;13.37;64.18;98834.31;347494;28;1853;-69
2023/03/31 00:15:44;;;;;;;4.25;1.25;;;;;;;13.33;64.37;98838.03;347549;28;1201;-69
2023/03/31 00:16:05;;;;;;;4.07;1.38;;;;;;;13.31;64.12;98835.50;346341;28;1240;-69
2023/03/31 00:16:18;;;;;;;3.95;1.20;;;;;;;13.35;64.07;98833.56;346092;28;1054;-69
2023/03/31 00:16:30;;;;;;;4.88;1.30;;;;;;;13.37;64.15;98832.56;345972;28;1037;-69
2023/03/31 00:16:43;;;;;;;3.88;1.30;;;;;;;13.41;64.03;98841.06;346206;28;1073;-69
2023/03/31 00:16:56;;;;;;;2.75;1.13;;;;;;;13.37;63.99;98831.72;346035;28;1192;-69
2023/03/31 00:17:09;;;;;;;4.32;1.13;;;;;;;13.39;64.38;98837.69;346889;28;1237;-69
2023/03/31 00:17:21;;;;;;;5.70;1.30;;;;;;;13.40;64.23;98831.56;347198;28;1630;-69
2023/03/31 00:17:33;;;;;;;5.65;1.30;;;;;;;13.39;64.06;98832.47;347526;28;1320;-69
2023/03/31 00:17:46;;;;;;;4.25;1.25;;;;;;;13.37;63.86;98835.16;347628;28;1367;-69
2023/03/31 00:17:59;;;;;;;3.00;1.15;;;;;;;13.37;64.04;98836.94;347787;28;1298;-69
2023/03/31 00:18:11;;;;;;;2.58;1.00;;;;;;;13.28;64.36;98834.81;347733;28;1165;-69
2023/03/31 00:18:26;;;;;;;4.00;1.08;;;;;;;13.31;64.47;98829.47;347845;28;1308;-69
2023/03/31 00:18:46;;;;;;;5.63;1.17;;;;;;;13.35;64.23;98826.56;347209;28;2225;-69
2023/03/31 00:19:00;;;;;;;4.88;1.25;;;;;;;13.32;64.15;98837.22;347836;28;1724;-69
2023/03/31 00:19:20;;;;;;;4.45;1.25;;;;;;;13.34;64.20;98829.25;347150;28;1082;-69
2023/03/31 00:19:32;;;;;;;3.75;1.13;;;;;;;13.29;64.41;98826.06;347716;28;1046;-69
2023/03/31 00:19:44;;;;;;;4.57;1.33;;;;;;;13.30;64.42;98832.97;347660;28;1325;-69
2023/03/31 00:19:59;;;;;;;5.38;1.42;;;;;;;13.29;64.68;98826.06;347148;28;2099;-69
2023/03/31 00:20:11;;;;;;;5.47;1.40;;;;;;;13.28;64.35;98832.19;347129;28;1695;-69
2023/03/31 00:20:23;;;;;;;4.35;1.30;;;;;;;13.30;64.45;98825.16;348088;28;773;-69
2023/03/31 00:20:36;;;;;;;3.40;1.10;;;;;;;13.28;64.41;98824.38;347530;28;1270;-69
2023/03/31 00:20:51;;;;;;;4.40;1.10;;;;;;;13.22;64.33;98829.94;346533;28;1258;-69
2023/03/31 00:21:23;;;;;;;5.32;1.30;;;;;;;13.28;64.62;98826.97;347721;28;1085;-69
2023/03/31 00:21:36;;;;;;;4.50;1.30;;;;;;;13.33;64.19;98822.38;347690;28;1094;-69
2023/03/31 00:21:48;;;;;;;5.10;1.20;;;;;;;13.41;63.84;98820.16;347521;28;1135;-69
2023/03/31 00:22:04;;;;;;;4.78;1.30;;;;;;;13.46;63.52;98823.38;347428;28;1471;-69
2023/03/31 00:22:17;;;;;;;4.53;1.33;;;;;;;13.45;63.51;98816.44;347569;28;1371;-69
2023/03/31 00:22:29;;;;;;;3.75;1.10;;;;;;;13.46;63.61;98823.38;347509;28;1547;-69
2023/03/31 00:22:45;;;;;;;4.63;1.13;;;;;;;13.47;63.61;98824.19;347724;28;1182;-69
2023/03/31 00:23:00;;;;;;;5.20;1.23;;;;;;;13.43;63.73;98818.31;347785;28;1023;-69
2023/03/31 00:23:13;;;;;;;4.38;1.15;;;;;;;13.34;64.00;98821.44;347957;28;1062;-68
2023/03/31 00:23:26;;;;;;;4.55;1.20;;;;;;;13.33;64.00;98822.38;347397;28;2221;-68
2023/03/31 00:23:40;;;;;;;4.95;1.27;;;;;;;13.36;64.05;98819.56;347719;28;1078;-69
2023/03/31 00:23:57;;;;;;;5.45;1.23;;;;;;;13.31;63.95;98819.03;347833;28;1380;-69
2023/03/31 00:24:11;;;;;;;6.50;1.17;;;;;;;13.35;63.92;98820.53;347773;28;1031;-69
2023/03/31 00:24:23;;;;;;;8.70;1.23;;;;;;;13.37;63.93;98823.88;347753;28;1264;-69
2023/03/31 00:24:35;;;;;;;7.15;1.23;;;;;;;13.41;63.89;98814.13;348165;28;731;-69
2023/03/31 00:24:47;;;;;;;3.95;1.20;;;;;;;13.39;63.87;98824.63;347809;28;1163;-69
2023/03/31 00:24:59;;;;;;;3.97;1.10;;;;;;;13.40;63.75;98813.28;347586;28;1046;-69
2023/03/31 00:25:15;;;;;;;3.70;1.13;;;;;;;13.34;64.08;98824.91;347783;28;1058;-69
2023/03/31 00:25:27;;;;;;;3.67;1.20;;;;;;;13.28;63.95;98814.78;346996;28;1573;-69
2023/03/31 00:25:42;;;;;;;3.75;1.20;;;;;;;13.26;64.11;98815.78;347752;28;1311;-68
2023/03/31 00:25:54;;;;;;;4.60;1.20;;;;;;;13.31;64.33;98811.19;346762;28;1310;-68
2023/03/31 00:26:08;;;;;;;5.20;1.20;;;;;;;13.32;64.16;98820.69;346143;28;2100;-69
2023/03/31 00:26:24;;;;;;;3.63;1.20;;;;;;;13.34;64.10;98824.03;347407;28;1858;-69
2023/03/31 00:26:37;;;;;;;2.75;1.10;;;;;;;13.39;63.97;98806.38;346405;28;1356;-69
2023/03/31 00:26:50;;;;;;;3.03;1.00;;;;;;;13.39;63.96;98817.63;347188;28;1176;-69
2023/03/31 00:27:04;;;;;;;3.15;1.13;;;;;;;13.41;64.00;98814.13;347844;28;1057;-69
2023/03/31 00:27:16;;;;;;;2.45;1.15;;;;;;;13.41;63.68;98816.72;347708;28;1169;-69
2023/03/31 00:27:28;;;;;;;2.42;1.15;;;;;;;13.39;63.89;98806.38;347655;28;1053;-69
2023/03/31 00:27:43;;;;;;;4.93;1.40;;;;;;;13.33;63.96;98807.56;347768;28;1309;-68
2023/03/31 00:27:55;;;;;;;5.45;1.63;;;;;;;13.30;64.24;98812.09;347603;28;1271;-69
2023/03/31 00:28:07;;;;;;;5.70;1.83;;;;;;;13.28;64.00;98809.56;347789;28;1224;-68
2023/03/31 00:28:20;;;;;;;5.30;1.80;;;;;;;13.31;64.18;98811.19;346902;28;1677;-69
2023/03/31 00:28:32;;;;;;;3.97;1.15;;;;;;;13.28;64.18;98808.72;347543;28;1642;-69
2023/03/31 00:28:44;;;;;;;3.78;1.08;;;;;;;13.27;64.14;98812.25;347781;28;1347;-69
2023/03/31 00:28:57;;;;;;;3.72;0.98;;;;;;;13.28;64.22;98799.13;346573;28;1287;-69
2023/03/31 00:29:11;;;;;;;4.05;1.13;;;;;;;13.22;64.31;98809.06;346587;28;1969;-69
2023/03/31 00:29:24;;;;;;;4.30;1.35;;;;;;;13.25;64.37;98803.69;347892;28;1169;-69
2023/03/31 00:29:40;;;;;;;4.85;1.40;;;;;;;13.15;64.62;98801.59;347975;28;1034;-69
2023/03/31 00:29:52;;;;;;;5.88;1.48;;;;;;;13.16;64.46;98805.88;347663;28;1275;-69
2023/03/31 00:30:04;;;;;;;5.22;1.40;;;;;;;13.13;64.73;98798.22;347773;28;1088;-69
2023/03/31 00:30:16;;;;;;;4.13;1.45;;;;;;;13.12;64.83;98803.50;348091;28;1231;-69
2023/03/31 00:30:28;;;;;;;4.22;1.42;;;;;;;13.14;64.73;98801.69;347093;28;1766;-69
2023/03/31 00:30:40;;;;;;;7.10;1.50;;;;;;;13.16;64.79;98805.06;348020;28;1309;-69
2023/03/31 00:30:52;;;;;;;8.10;1.35;;;;;;;13.15;64.76;98805.97;347768;28;1267;-69
2023/03/31 00:31:04;;;;;;;6.00;1.20;;;;;;;13.16;65.01;98800.66;347845;28;1185;-69
2023/03/31 00:31:16;;;;;;;6.93;1.27;;;;;;;13.14;65.12;98797.31;347523;28;1260;-69
2023/03/31 00:31:29;;;;;;;5.95;1.15;;;;;;;13.14;64.96;98802.53;347962;28;1225;-69
2023/03/31 00:31:41;;;;;;;4.75;1.08;;;;;;;13.15;65.13;98803.34;347617;28;1212;-69
2023/03/31 00:31:54;;;;;;;4.47;1.13;;;;;;;13.18;65.00;98798.81;347901;28;1367;-69
2023/03/31 00:32:07;;;;;;;4.85;1.23;;;;;;;13.18;64.64;98797.97;347075;28;1312;-69
2023/03/31 00:32:19;;;;;;;4.97;1.23;;;;;;;13.07;65.15;98801.19;347698;28;1134;-69
2023/03/31 00:32:32;;;;;;;5.50;1.35;;;;;;;13.09;65.50;98799.31;347674;28;1003;-69
2023/03/31 00:32:44;;;;;;;5.55;1.52;;;;;;;13.10;65.14;98806.25;347962;28;1339;-69
2023/03/31 00:32:56;;;;;;;3.80;1.38;;;;;;;13.09;65.19;98794.09;347814;28;1299;-69
2023/03/31 00:33:08;;;;;;;3.65;1.20;;;;;;;13.10;65.18;98795.81;348127;28;731;-69
2023/03/31 00:33:20;;;;;;;3.97;1.20;;;;;;;13.17;65.06;98802.34;347650;28;1935;-69
2023/03/31 00:33:32;;;;;;;5.30;1.25;;;;;;;13.19;64.67;98799.66;348055;28;1096;-69
2023/03/31 00:33:44;;;;;;;5.82;1.25;;;;;;;13.18;64.93;98803.19;347661;28;1173;-69
2023/03/31 00:33:57;;;;;;;6.38;1.20;;;;;;;13.17;64.99;98794.50;347800;28;1242;-69
2023/03/31 00:34:09;;;;;;;3.50;1.10;;;;;;;13.12;64.90;98796.56;347077;28;1518;-69
2023/03/31 00:34:21;;;;;;;3.95;1.20;;;;;;;13.16;65.09;98803.28;347920;28;1056;-69
2023/03/31 00:34:33;;;;;;;3.42;1.17;;;;;;;13.18;64.92;98804.03;347859;28;1084;-69
2023/03/31 00:34:45;;;;;;;4.03;1.17;;;;;;;13.21;65.17;98800.41;347713;28;1346;-69
2023/03/31 00:34:57;;;;;;;5.07;1.20;;;;;;;13.18;65.07;98798.81;348002;28;1675;-69
2023/03/31 00:35:10;;;;;;;7.40;1.40;;;;;;;13.17;65.25;98796.28;346987;28;1657;-69
2023/03/31 00:35:22;;;;;;;5.75;1.45;;;;;;;13.13;65.03;98793.00;347462;28;1267;-69
2023/03/31 00:35:38;;;;;;;4.88;1.40;;;;;;;13.08;65.18;98791.56;348015;28;1165;-69
2023/03/31 00:35:51;;;;;;;3.28;1.17;;;;;;;13.09;65.69;98791.50;347788;28;1215;-69
2023/03/31 00:36:04;;;;;;;4.57;1.15;;;;;;;13.07;65.47;98793.34;347183;28;1602;-69
2023/03/31 00:36:26;;;;;;;5.45;1.23;;;;;;;13.09;65.54;98794.09;346508;28;1781;-69
2023/03/31 00:36:46;;;;;;;6.18;1.25;;;;;;;13.13;65.26;98792.16;346292;28;1050;-69
2023/03/31 00:37:01;;;;;;;4.72;1.35;;;;;;;13.16;65.24;98789.41;347167;28;1354;-69
2023/03/31 00:37:15;;;;;;;6.68;1.60;;;;;;;13.19;65.35;98795.25;347641;28;1014;-69
2023/03/31 00:37:29;;;;;;;6.15;1.52;;;;;;;13.23;65.49;98784.66;347469;28;1028;-69
2023/03/31 00:37:42;;;;;;;5.30;1.33;;;;;;;13.24;65.64;98786.31;347697;28;1102;-69
2023/03/31 00:37:56;;;;;;;5.50;1.45;;;;;;;13.27;65.80;98791.38;347492;28;1040;-69
2023/03/31 00:38:12;;;;;;;3.90;1.30;;;;;;;13.28;65.65;98787.81;347554;28;1060;-69
2023/03/31 00:38:24;;;;;;;5.07;1.23;;;;;;;13.29;65.70;98789.53;347604;28;1070;-69
2023/03/31 00:38:36;;;;;;;5.28;1.27;;;;;;;13.31;65.77;98782.47;347584;28;1174;-69
2023/03/31 00:38:50;;;;;;;4.40;1.10;;;;;;;13.30;65.59;98786.00;347433;28;1784;-69
2023/03/31 00:39:07;;;;;;;4.15;1.08;;;;;;;13.28;65.44;98783.47;347518;28;1077;-69
2023/03/31 00:39:19;;;;;;;4.32;1.20;;;;;;;13.29;65.88;98786.91;347493;28;1080;-69
2023/03/31 00:39:34;;;;;;;4.15;1.25;;;;;;;13.28;65.62;98785.22;346634;28;1910;-69
2023/03/31 00:39:46;;;;;;;4.10;1.30;;;;;;;13.28;65.48;98782.59;347119;28;1811;-69
2023/03/31 00:39:58;;;;;;;4.55;1.15;;;;;;;13.22;65.67;98789.03;347887;28;1034;-69
2023/03/31 00:40:10;;;;;;;3.92;1.00;;;;;;;13.17;65.80;98778.84;347660;28;1364;-69
2023/03/31 00:40:22;;;;;;;3.65;1.15;;;;;;;13.19;65.71;98784.81;347953;28;1144;-69
2023/03/31 00:40:35;;;;;;;4.15;1.30;;;;;;;13.21;65.84;98786.50;347913;28;1091;-69
2023/03/31 00:40:53;;;;;;;4.55;1.30;;;;;;;13.22;65.99;98783.81;347878;28;1245;-69
2023/03/31 00:41:07;;;;;;;4.32;1.13;;;;;;;13.25;66.12;98778.41;347954;28;1070;-69
2023/03/31 00:41:19;;;;;;;5.68;1.23;;;;;;;13.28;65.78;98783.47;347722;28;1041;-69
2023/03/31 00:41:31;;;;;;;6.60;1.40;;;;;;;13.31;65.85;98777.25;347466;28;1493;-69
2023/03/31 00:41:44;;;;;;;6.53;1.40;;;;;;;13.32;65.79;98781.53;346665;28;1825;-69
2023/03/31 00:41:57;;;;;;;5.43;1.20;;;;;;;13.35;65.65;98778.75;346330;28;1106;-69
2023/03/31 00:42:13;;;;;;;3.13;1.05;;;;;;;13.37;65.88;98782.13;346393;28;1302;-69
2023/03/31 00:42:26;;;;;;;2.78;1.10;;;;;;;13.38;66.09;98778.56;346505;28;1289;-69
2023/03/31 00:42:40;;;;;;;3.03;1.10;;;;;;;13.35;66.04;98778.75;346537;28;1098;-69
2023/03/31 00:42:52;;;;;;;5.20;1.35;;;;;;;13.34;65.94;98771.84;347423;28;1223;-69
2023/03/31 00:43:25;;;;;;;5.72;1.48;;;;;;;13.36;65.85;98770.84;347358;28;1036;-69
2023/03/31 00:43:37;;;;;;;4.60;1.10;;;;;;;13.37;65.65;98774.28;347302;28;1038;-69
2023/03/31 00:44:24;;;;;;;5.00;1.33;;;;;;;13.37;66.03;98776.91;346696;28;1969;-69
2023/03/31 00:44:58;;;;;;;5.40;1.35;;;;;;;13.38;66.10;98776.81;340642;29;1177;-69
2023/03/31 00:45:13;;;;;;;3.33;1.02;;;;;;;13.41;65.98;98778.41;346366;28;1035;-69
2023/03/31 00:45:28;;;;;;;5.82;1.10;;;;;;;13.36;65.91;98772.59;346343;28;1065;-69
2023/03/31 00:45:40;;;;;;;6.07;1.40;;;;;;;13.35;65.88;98773.53;346572;28;1022;-69
2023/03/31 00:45:53;;;;;;;4.97;1.58;;;;;;;13.35;65.75;98776.97;346554;28;1207;-69
2023/03/31 00:46:16;;;;;;;4.82;1.38;;;;;;;13.33;65.56;98770.19;345662;28;1618;-69
2023/03/31 00:46:43;;;;;;;3.50;1.10;;;;;;;13.38;65.56;98779.44;347812;28;1256;-69
2023/03/31 00:47:03;;;;;;;3.70;1.02;;;;;;;13.42;65.28;98774.00;344686;28;1027;-69
2023/03/31 00:47:21;;;;;;;5.80;1.10;;;;;;;13.42;65.53;98777.50;344598;28;961;-69
2023/03/31 00:47:34;;;;;;;6.10;1.10;;;;;;;13.43;65.32;98773.94;344440;28;2280;-69
2023/03/31 00:47:53;;;;;;;5.25;1.17;;;;;;;13.46;65.36;98776.38;344987;28;1240;-69
2023/03/31 00:48:11;;;;;;;2.63;1.10;;;;;;;13.47;65.08;98772.81;346554;28;1567;-69
2023/03/31 00:48:23;;;;;;;3.08;1.00;;;;;;;13.45;64.84;98779.91;347588;28;1166;-70
2023/03/31 00:48:37;;;;;;;3.83;1.15;;;;;;;13.47;64.82;98778.03;347908;28;742;-69
2023/03/31 00:48:56;;;;;;;3.25;1.10;;;;;;;13.47;64.76;98775.44;347305;28;1397;-69
2023/03/31 00:49:19;;;;;;;3.60;1.02;;;;;;;13.51;64.60;98774.31;347863;28;1058;-69
2023/03/31 00:49:44;;;;;;;4.30;1.20;;;;;;;13.50;64.27;98775.28;346527;28;1226;-69
2023/03/31 00:49:57;;;;;;;5.57;1.17;;;;;;;13.52;64.28;98770.78;347515;28;1054;-69
2023/03/31 00:50:19;;;;;;;6.03;1.80;;;;;;;13.54;64.25;98774.16;347920;28;1181;-69
2023/03/31 00:50:35;;;;;;;5.40;2.03;;;;;;;13.53;64.47;98769.84;347828;28;1010;-69
2023/03/31 00:50:52;;;;;;;5.33;1.60;;;;;;;13.50;64.27;98777.88;347874;28;1325;-69
2023/03/31 00:51:06;;;;;;;3.63;1.58;;;;;;;13.48;64.45;98769.28;347572;28;1074;-69
2023/03/31 00:51:21;;;;;;;4.75;1.80;;;;;;;13.39;64.84;98775.88;346639;28;2039;-69
2023/03/31 00:51:34;;;;;;;5.43;2.00;;;;;;;13.32;65.28;98771.97;347492;28;1532;-69
2023/03/31 00:51:48;;;;;;;4.85;1.90;;;;;;;13.28;65.54;98772.16;347509;28;1082;-69
2023/03/31 00:52:14;;;;;;;5.45;1.90;;;;;;;13.21;65.77;98765.63;347275;28;1112;-69
2023/03/31 00:52:36;;;;;;;5.82;1.90;;;;;;;13.21;65.71;98760.41;346234;28;1179;-69
2023/03/31 00:52:53;;;;;;;5.93;1.90;;;;;;;13.26;65.68;98763.59;345921;28;1940;-69
2023/03/31 00:53:10;;;;;;;4.93;1.73;;;;;;;13.23;66.16;98759.41;346013;28;1138;-69
2023/03/31 00:53:29;;;;;;;4.15;1.65;;;;;;;13.15;65.93;98759.84;346698;28;870;-69
2023/03/31 00:53:41;;;;;;;5.47;1.70;;;;;;;13.09;66.32;98760.19;346211;28;1151;-69
2023/03/31 00:53:58;;;;;;;5.65;1.70;;;;;;;13.05;66.43;98761.28;347531;28;1357;-69
2023/03/31 00:54:11;;;;;;;5.35;1.80;;;;;;;13.11;66.10;98766.16;347418;28;1081;-69
2023/03/31 00:54:26;;;;;;;4.13;1.60;;;;;;;13.17;66.05;98759.75;347838;28;1062;-69
2023/03/31 00:54:39;;;;;;;3.35;1.40;;;;;;;13.22;65.78;98762.09;348723;28;1223;-69
2023/03/31 00:54:59;;;;;;;4.18;1.50;;;;;;;13.25;65.66;98761.91;348972;28;1338;-69
2023/03/31 00:55:16;;;;;;;4.57;1.60;;;;;;;13.30;65.42;98768.59;347601;28;1057;-69
2023/03/31 00:55:38;;;;;;;5.13;1.38;;;;;;;13.30;65.24;98765.13;347485;28;1263;-69
2023/03/31 00:55:54;;;;;;;4.60;1.30;;;;;;;13.32;65.02;98763.25;348371;28;1816;-69
2023/03/31 00:56:12;;;;;;;4.45;1.27;;;;;;;13.30;64.98;98765.13;346726;28;1590;-69
2023/03/31 00:56:27;;;;;;;4.13;1.15;;;;;;;13.26;64.94;98763.59;347694;28;1754;-69
2023/03/31 00:56:46;;;;;;;4.47;1.15;;;;;;;13.28;64.89;98756.50;347758;28;1117;-69
2023/03/31 00:57:02;;;;;;;4.15;1.33;;;;;;;13.29;64.62;98758.22;346614;28;2119;-69
2023/03/31 00:57:14;;;;;;;4.15;1.33;;;;;;;13.35;64.56;98760.50;347777;28;1183;-69
2023/03/31 00:57:31;;;;;;;3.53;1.40;;;;;;;13.35;64.66;98758.72;347889;28;1066;-69
2023/03/31 00:57:45;;;;;;;4.28;1.35;;;;;;;13.37;64.55;98761.25;347952;28;1086;-69
2023/03/31 00:58:00;;;;;;;6.13;1.67;;;;;;;13.38;64.60;98762.91;347682;28;1320;-69
2023/03/31 00:58:18;;;;;;;5.82;1.83;;;;;;;13.38;64.42;98757.69;347459;28;1287;-69
2023/03/31 00:58:32;;;;;;;5.90;1.50;;;;;;;13.38;64.35;98762.91;346879;28;2126;-69
2023/03/31 00:58:44;;;;;;;6.65;2.13;;;;;;;13.38;64.43;98762.91;346452;28;1338;-70
2023/03/31 00:59:01;;;;;;;6.35;2.42;;;;;;;13.29;65.24;98752.97;349025;28;1265;-69
2023/03/31 00:59:14;;;;;;;4.43;1.85;;;;;;;13.27;65.42;98760.91;348834;28;1042;-69
2023/03/31 00:59:28;;;;;;;5.63;1.95;;;;;;;13.27;65.26;98765.28;347264;28;1708;-69
2023/03/31 00:59:50;;;;;;;6.60;2.03;;;;;;;13.24;65.47;98763.69;347108;28;1099;-69
2023/03/31 01:00:14;;;;;;;4.93;2.10;;;;;;;13.25;65.38;98759.31;346569;28;1197;-69
2023/03/31 01:00:29;;;;;;;7.28;1.90;;;;;;;13.17;65.53;98762.34;346442;28;1168;-69
2023/03/31 01:00:41;;;;;;;6.72;1.80;;;;;;;13.11;66.17;98766.16;346557;28;1250;-69
2023/03/31 01:00:56;;;;;;;6.72;1.75;;;;;;;12.92;66.71;98762.94;346587;28;1643;-69
2023/03/31 01:01:14;;;;;;;6.28;1.55;;;;;;;12.78;67.51;98769.75;346560;28;1037;-69
2023/03/31 01:01:26;;;;;;;5.32;1.40;;;;;;;12.76;67.84;98771.59;347852;28;1204;-69
2023/03/31 01:01:45;;;;;;;5.47;1.45;;;;;;;12.63;68.16;98762.75;346751;28;1706;-69
2023/03/31 01:02:01;;;;;;;4.25;1.60;;;;;;;12.76;67.88;98776.81;346491;28;1026;-69
2023/03/31 01:02:19;;;;;;;2.65;1.35;;;;;;;12.76;67.09;98774.22;347157;28;2251;-69
2023/03/31 01:02:32;;;;;;;3.22;1.50;;;;;;;12.71;67.49;98768.41;347897;28;1013;-69
2023/03/31 01:03:06;;;;;;;4.80;1.60;;;;;;;12.67;67.92;98772.09;346959;28;2414;-69
2023/03/31 01:03:21;;;;;;;4.38;1.48;;;;;;;12.74;67.60;98770.84;346477;28;1805;-69
2023/03/31 01:03:33;;;;;;;4.07;1.40;;;;;;;12.70;67.65;98758.91;347872;28;1341;-69
2023/03/31 01:03:46;;;;;;;4.72;1.52;;;;;;;12.71;67.94;98765.78;347842;28;1455;-70
2023/03/31 01:04:02;;;;;;;4.57;1.55;;;;;;;12.70;67.72;98771.94;347764;28;1061;-69
2023/03/31 01:04:15;;;;;;;4.65;1.67;;;;;;;12.71;67.79;98773.59;347747;28;985;-69
2023/03/31 01:04:32;;;;;;;4.88;1.60;;;;;;;12.77;67.83;98768.06;347580;28;1166;-69
2023/03/31 01:04:53;;;;;;;5.25;1.38;;;;;;;12.81;67.38;98767.91;347739;28;1254;-69
2023/03/31 01:05:07;;;;;;;5.80;1.55;;;;;;;12.79;67.56;98766.19;346675;28;1548;-69
2023/03/31 01:05:24;;;;;;;5.22;1.67;;;;;;;12.84;67.34;98770.31;347455;28;1094;-69
2023/03/31 01:05:46;;;;;;;5.72;1.60;;;;;;;12.84;67.53;98767.72;347706;28;1018;-69
2023/03/31 01:06:04;;;;;;;3.47;1.58;;;;;;;12.92;66.96;98766.38;346018;28;2368;-69
2023/03/31 01:06:18;;;;;;;4.30;1.88;;;;;;;12.95;67.15;98765.34;347862;28;1093;-69
2023/03/31 01:06:31;;;;;;;4.68;1.73;;;;;;;12.87;66.79;98768.38;347626;28;1027;-69
2023/03/31 01:07:01;;;;;;;3.47;1.48;;;;;;;12.90;66.74;98777.81;348524;28;1309;-69
2023/03/31 01:07:21;;;;;;;5.43;2.05;;;;;;;12.81;67.59;98763.50;345919;28;1154;-69
2023/03/31 01:07:42;;;;;;;6.95;2.10;;;;;;;12.69;67.96;98772.03;346086;28;2135;-69
2023/03/31 01:07:56;;;;;;;6.88;2.00;;;;;;;12.61;68.17;98767.22;346259;28;1147;-69
2023/03/31 01:08:09;;;;;;;5.65;2.00;;;;;;;12.51;68.31;98771.25;345892;28;1179;-69
2023/03/31 01:08:27;;;;;;;6.20;2.00;;;;;;;12.44;68.91;98770.78;345110;28;1067;-69
2023/03/31 01:08:40;;;;;;;5.70;1.80;;;;;;;12.41;69.19;98775.31;344711;28;1332;-69
2023/03/31 01:08:52;;;;;;;4.60;1.77;;;;;;;12.47;69.10;98774.97;345655;28;2104;-69
2023/03/31 01:09:05;;;;;;;5.38;2.05;;;;;;;12.55;68.81;98772.78;345377;28;1918;-69
2023/03/31 01:09:19;;;;;;;7.25;2.20;;;;;;;12.62;68.57;98768.91;346746;28;1066;-69
2023/03/31 01:09:34;;;;;;;7.25;2.03;;;;;;;12.67;68.03;98771.28;346490;28;1647;-69
2023/03/31 01:09:46;;;;;;;5.75;1.85;;;;;;;12.68;67.81;98772.97;347331;28;1201;-69
2023/03/31 01:10:01;;;;;;;4.95;1.70;;;;;;;12.74;67.64;98773.47;347592;28;1198;-69
2023/03/31 01:10:13;;;;;;;4.93;1.65;;;;;;;12.73;67.60;98770.94;347885;28;1201;-69
2023/03/31 01:10:26;;;;;;;8.10;2.00;;;;;;;12.76;67.70;98776.81;347769;28;1050;-69
2023/03/31 01:10:42;;;;;;;7.63;2.10;;;;;;;12.78;67.53;98769.75;347856;28;1036;-69
2023/03/31 01:11:00;;;;;;;3.95;1.80;;;;;;;12.67;68.13;98769.50;346169;28;1586;-69
2023/03/31 01:11:17;;;;;;;4.53;1.58;;;;;;;12.69;68.07;98769.41;347348;28;1722;-69
2023/03/31 01:11:30;;;;;;;4.75;1.50;;;;;;;12.68;68.18;98768.59;347178;28;1639;-69
2023/03/31 01:11:45;;;;;;;5.60;1.40;;;;;;;12.66;68.12;98770.44;346210;28;1377;-69
2023/03/31 01:11:57;;;;;;;5.57;1.50;;;;;;;12.70;68.16;98761.50;346305;28;1106;-69